createdAt,value
2023-01-23T00:02:14.922Z,100867.84
2023-01-23T00:05:16.797Z,100874.42
2023-01-23T00:08:18.355Z,100874.04
2023-01-23T00:11:22.204Z,100878.23
2023-01-23T00:14:24.017Z,100880.90
2023-01-23T00:17:26.160Z,100879.53
2023-01-23T00:20:27.849Z,100879.39
2023-01-23T00:23:29.571Z,100883.33
2023-01-23T00:26:32.078Z,100884.52
2023-01-23T00:29:33.918Z,100886.20
2023-01-23T00:32:35.585Z,100894.23
2023-01-23T00:35:37.351Z,100901.20
2023-01-23T00:38:39.185Z,100905.15
2023-01-23T00:41:41.179Z,100909.75
2023-01-23T00:44:42.899Z,100912.98
2023-01-23T00:47:44.439Z,100911.33
2023-01-23T00:50:46.219Z,100911.88
2023-01-23T00:53:47.903Z,100910.55
2023-01-23T00:56:49.533Z,100909.89
2023-01-23T00:59:51.219Z,100912.98
2023-01-23T01:02:52.920Z,100914.90
2023-01-23T01:05:54.677Z,100909.84
2023-01-23T01:08:57.489Z,100910.36
2023-01-23T01:11:59.116Z,100921.44
2023-01-23T01:15:00.728Z,100928.06
2023-01-23T01:18:02.856Z,100935.82
2023-01-23T01:21:09.527Z,100937.69
2023-01-23T01:24:11.277Z,100934.14
2023-01-23T01:27:13.149Z,100935.40
2023-01-23T01:30:15.496Z,100934.73
2023-01-23T01:33:17.339Z,100939.27
2023-01-23T01:36:21.421Z,100940.95
2023-01-23T01:39:23.091Z,100934.64
2023-01-23T01:42:24.675Z,100927.02
2023-01-23T01:46:03.978Z,100933.51
2023-01-23T01:49:19.364Z,100931.06
2023-01-23T01:52:22.557Z,100928.98
2023-01-23T01:55:24.138Z,100925.75
2023-01-23T01:58:27.729Z,100917.75
2023-01-23T02:01:29.789Z,100922.71
2023-01-23T02:04:34.210Z,100932.44
2023-01-23T02:07:49.928Z,100937.66
2023-01-23T02:10:52.204Z,100931.96
2023-01-23T02:13:53.854Z,100931.61
2023-01-23T02:16:55.540Z,100934.85
2023-01-23T02:19:59.871Z,100935.06
2023-01-23T02:23:08.412Z,100939.34
2023-01-23T02:26:16.682Z,100939.31
2023-01-23T02:29:18.324Z,100942.30
2023-01-23T02:32:23.618Z,100940.76
2023-01-23T02:35:29.135Z,100942.98
2023-01-23T02:38:33.093Z,100935.17
2023-01-23T02:41:40.932Z,100933.81
2023-01-23T02:44:42.536Z,100941.00
2023-01-23T02:47:44.179Z,100945.76
2023-01-23T02:50:46.015Z,100947.27
2023-01-23T02:53:47.721Z,100954.45
2023-01-23T02:56:49.850Z,100961.80
2023-01-23T02:59:51.527Z,100967.63
2023-01-23T03:02:53.269Z,100969.20
2023-01-23T03:05:55.182Z,100967.84
2023-01-23T03:08:56.998Z,100967.89
2023-01-23T03:11:58.772Z,100964.59
2023-01-23T03:15:00.313Z,100971.84
2023-01-23T03:18:01.934Z,100977.73
2023-01-23T03:21:05.236Z,100978.08
2023-01-23T03:24:09.147Z,100976.73
2023-01-23T03:27:10.896Z,100976.59
2023-01-23T03:30:12.903Z,100974.87
2023-01-23T03:33:14.427Z,100974.18
2023-01-23T03:36:16.025Z,100970.95
2023-01-23T03:39:17.638Z,100972.48
2023-01-23T03:42:19.448Z,100969.54
2023-01-23T03:45:21.120Z,100971.74
2023-01-23T03:48:22.832Z,100980.62
2023-01-23T03:51:24.561Z,100985.59
2023-01-23T03:54:26.329Z,100985.98
2023-01-23T03:57:28.024Z,100994.88
2023-01-23T04:00:29.592Z,101001.84
2023-01-23T04:03:31.461Z,101007.09
2023-01-23T04:06:33.184Z,101008.27
2023-01-23T04:09:34.789Z,101014.02
2023-01-23T04:12:36.337Z,101015.54
2023-01-23T04:15:38.053Z,101013.17
2023-01-23T04:18:39.720Z,101017.64
2023-01-23T04:21:41.336Z,101020.52
2023-01-23T04:24:42.896Z,101018.83
2023-01-23T04:27:44.421Z,101015.40
2023-01-23T04:30:46.651Z,101017.44
2023-01-23T04:33:48.313Z,101025.83
2023-01-23T04:36:49.979Z,101029.08
2023-01-23T04:39:51.591Z,101029.98
2023-01-23T04:42:53.394Z,101026.88
2023-01-23T04:45:56.491Z,101030.45
2023-01-23T04:48:58.143Z,101031.42
2023-01-23T04:51:59.867Z,101037.84
2023-01-23T04:55:01.467Z,101043.44
2023-01-23T04:58:03.181Z,101046.96
2023-01-23T05:01:05.628Z,101046.44
2023-01-23T05:04:07.311Z,101044.34
2023-01-23T05:07:09.502Z,101041.29
2023-01-23T05:10:11.508Z,101045.31
2023-01-23T05:13:13.091Z,101049.38
2023-01-23T05:16:14.858Z,101041.58
2023-01-23T05:19:16.407Z,101043.80
2023-01-23T05:22:18.083Z,101045.31
2023-01-23T05:25:22.081Z,101051.66
2023-01-23T05:28:23.658Z,101049.91
2023-01-23T05:31:25.283Z,101042.49
2023-01-23T05:34:26.910Z,101039.27
2023-01-23T05:37:28.478Z,101037.27
2023-01-23T05:40:30.131Z,101045.69
2023-01-23T05:43:31.842Z,101051.84
2023-01-23T05:46:33.680Z,101056.04
2023-01-23T05:49:35.164Z,101053.05
2023-01-23T05:52:36.866Z,101053.35
2023-01-23T05:55:39.180Z,101060.15
2023-01-23T05:58:41.212Z,101067.60
2023-01-23T06:01:42.827Z,101067.92
2023-01-23T06:04:47.476Z,101074.15
2023-01-23T06:07:49.120Z,101078.83
2023-01-23T06:10:51.076Z,101080.59
2023-01-23T06:13:52.732Z,101084.05
2023-01-23T06:16:54.378Z,101095.27
2023-01-23T06:19:56.015Z,101098.91
2023-01-23T06:22:57.660Z,101101.65
2023-01-23T06:26:00.782Z,101106.85
2023-01-23T06:29:02.487Z,101112.02
2023-01-23T06:32:04.131Z,101114.64
2023-01-23T06:35:06.803Z,101118.20
2023-01-23T06:38:08.394Z,101116.10
2023-01-23T06:41:10.277Z,101120.73
2023-01-23T06:44:11.951Z,101126.27
2023-01-23T06:47:13.757Z,101133.86
2023-01-23T06:50:16.812Z,101132.96
2023-01-23T06:53:19.086Z,101134.96
2023-01-23T06:56:20.698Z,101140.30
2023-01-23T06:59:22.366Z,101137.63
2023-01-23T07:02:24.076Z,101144.00
2023-01-23T07:05:25.778Z,101144.84
2023-01-23T07:08:27.341Z,101140.92
2023-01-23T07:11:29.148Z,101137.79
2023-01-23T07:14:30.753Z,101140.27
2023-01-23T07:17:32.410Z,101138.16
2023-01-23T07:20:34.110Z,101132.30
2023-01-23T07:23:35.874Z,101134.63
2023-01-23T07:26:37.585Z,101135.52
2023-01-23T07:29:39.235Z,101137.12
2023-01-23T07:32:41.383Z,101135.48
2023-01-23T07:35:42.995Z,101135.08
2023-01-23T07:38:44.728Z,101138.96
2023-01-23T07:41:46.590Z,101142.27
2023-01-23T07:44:48.219Z,101149.86
2023-01-23T07:47:49.977Z,101151.99
2023-01-23T07:50:51.689Z,101159.42
2023-01-23T07:53:53.387Z,101162.73
2023-01-23T07:56:55.040Z,101166.19
2023-01-23T07:59:56.683Z,101169.08
2023-01-23T08:02:58.289Z,101169.68
2023-01-23T08:05:59.889Z,101171.81
2023-01-23T08:09:01.605Z,101169.35
2023-01-23T08:12:03.316Z,101171.89
2023-01-23T08:15:05.258Z,101176.70
2023-01-23T08:18:07.173Z,101180.52
2023-01-23T08:21:09.306Z,101179.70
2023-01-23T08:24:14.119Z,101179.84
2023-01-23T08:27:15.742Z,101180.77
2023-01-23T08:30:17.949Z,101181.09
2023-01-23T08:33:20.869Z,101173.90
2023-01-23T08:36:22.923Z,101170.95
2023-01-23T08:39:24.653Z,101167.96
2023-01-23T08:42:26.455Z,101173.16
2023-01-23T08:45:27.959Z,101174.75
2023-01-23T08:48:29.625Z,101175.89
2023-01-23T08:51:31.607Z,101173.11
2023-01-23T08:54:33.576Z,101173.57
2023-01-23T08:57:35.256Z,101176.75
2023-01-23T09:00:36.743Z,101175.48
2023-01-23T09:03:38.448Z,101174.09
2023-01-23T09:06:40.279Z,101176.39
2023-01-23T09:09:41.953Z,101177.02
2023-01-23T09:12:43.424Z,101177.98
2023-01-23T09:15:45.866Z,101181.64
2023-01-23T09:18:47.729Z,101188.05
2023-01-23T09:21:49.456Z,101185.21
2023-01-23T09:24:51.116Z,101182.42
2023-01-23T09:27:52.726Z,101185.98
2023-01-23T09:30:54.561Z,101185.45
2023-01-23T09:33:56.300Z,101187.96
2023-01-23T09:36:57.795Z,101181.38
2023-01-23T09:39:59.309Z,101172.57
2023-01-23T09:43:17.677Z,101168.71
2023-01-23T09:46:23.916Z,101169.44
2023-01-23T09:49:44.211Z,101165.02
2023-01-23T09:52:51.660Z,101171.87
2023-01-23T09:56:12.696Z,101174.44
2023-01-23T09:59:31.621Z,101176.14
2023-01-23T10:02:34.160Z,101171.98
2023-01-23T10:05:58.375Z,101174.33
2023-01-23T10:09:16.019Z,101176.14
2023-01-23T10:12:29.428Z,101177.81
2023-01-23T10:15:59.493Z,101178.27
2023-01-23T10:19:04.070Z,101177.83
2023-01-23T10:22:29.304Z,101173.30
2023-01-23T10:25:33.358Z,101178.91
2023-01-23T10:28:37.602Z,101176.80
2023-01-23T10:31:53.040Z,101175.48
2023-01-23T10:35:02.261Z,101175.61
2023-01-23T10:38:23.327Z,101177.64
2023-01-23T10:41:25.051Z,101171.15
2023-01-23T10:44:26.555Z,101169.96
2023-01-23T10:47:35.727Z,101167.92
2023-01-23T10:50:38.545Z,101166.27
2023-01-23T10:53:40.302Z,101164.20
2023-01-23T10:56:48.070Z,101158.16
2023-01-23T11:00:01.947Z,101151.29
2023-01-23T11:03:22.065Z,101150.23
2023-01-23T11:06:24.343Z,101148.17
2023-01-23T11:09:25.963Z,101148.38
2023-01-23T11:12:28.527Z,101145.02
2023-01-23T11:15:32.880Z,101138.17
2023-01-23T11:18:36.109Z,101136.61
2023-01-23T11:21:55.042Z,101129.80
2023-01-23T11:24:56.838Z,101128.81
2023-01-23T11:28:12.863Z,101126.60
2023-01-23T11:31:24.680Z,101121.66
2023-01-23T11:34:50.457Z,101121.70
2023-01-23T11:37:53.840Z,101124.46
2023-01-23T11:40:55.611Z,101122.73
2023-01-23T11:43:57.358Z,101124.25
2023-01-23T11:47:07.859Z,101124.24
2023-01-23T11:50:16.394Z,101125.61
2023-01-23T11:53:36.800Z,101127.17
2023-01-23T11:57:08.261Z,101131.58
2023-01-23T12:00:24.957Z,101131.41
2023-01-23T12:03:55.665Z,101128.54
2023-01-23T12:07:19.327Z,101126.48
2023-01-23T12:10:26.750Z,101126.85
2023-01-23T12:13:57.820Z,101128.08
2023-01-23T12:17:10.467Z,101128.92
2023-01-23T12:20:30.162Z,101120.23
2023-01-23T12:23:42.751Z,101120.09
2023-01-23T12:27:00.364Z,101118.77
2023-01-23T12:30:08.004Z,101121.20
2023-01-23T12:33:40.877Z,101123.45
2023-01-23T12:37:31.139Z,101122.61
2023-01-23T12:41:21.111Z,101121.76
2023-01-23T12:44:43.489Z,101121.39
2023-01-23T12:47:52.411Z,101123.96
2023-01-23T12:51:02.309Z,101122.27
2023-01-23T12:54:07.011Z,101129.44
2023-01-23T12:57:09.917Z,101130.64
2023-01-23T13:00:33.398Z,101128.58
2023-01-23T13:03:46.728Z,101128.75
2023-01-23T13:07:00.596Z,101128.93
2023-01-23T13:10:17.636Z,101128.09
2023-01-23T13:13:20.584Z,101126.02
2023-01-23T13:16:31.686Z,101122.95
2023-01-23T13:19:40.493Z,101127.91
2023-01-23T13:22:42.304Z,101125.68
2023-01-23T13:25:43.787Z,101131.83
2023-01-23T13:28:48.954Z,101132.16
2023-01-23T13:31:50.925Z,101135.71
2023-01-23T13:34:52.802Z,101138.75
2023-01-23T13:37:54.306Z,101140.78
2023-01-23T13:41:02.139Z,101145.52
2023-01-23T13:44:05.462Z,101152.34
2023-01-23T14:20:25.329Z,101159.79
2023-01-23T14:23:31.035Z,101161.13
2023-01-23T14:26:35.035Z,101159.88
2023-01-23T14:29:36.762Z,101161.36
2023-01-23T14:32:38.391Z,101163.16
2023-01-23T14:35:40.073Z,101167.04
2023-01-23T14:38:43.700Z,101172.80
2023-01-23T14:41:47.612Z,101168.33
2023-01-23T14:44:50.474Z,101165.36
2023-01-23T14:48:04.665Z,101168.02
2023-01-23T14:51:15.102Z,101163.70
2023-01-23T14:54:22.920Z,101163.51
2023-01-23T14:57:26.287Z,101166.04
2023-01-23T15:00:28.620Z,101161.02
2023-01-23T15:03:44.978Z,101163.08
2023-01-23T15:06:52.210Z,101166.98
2023-01-23T15:09:53.876Z,101165.93
2023-01-23T15:12:58.624Z,101167.58
2023-01-23T15:16:02.685Z,101171.96
2023-01-23T15:19:07.643Z,101174.84
2023-01-23T15:22:21.961Z,101177.35
2023-01-23T15:25:31.107Z,101184.66
2023-01-23T15:28:38.841Z,101186.16
2023-01-23T15:31:40.620Z,101185.48
2023-01-23T15:34:54.777Z,101182.21
2023-01-23T15:37:56.778Z,101182.36
2023-01-23T15:40:58.444Z,101183.73
2023-01-23T15:43:59.955Z,101182.88
2023-01-23T15:47:01.506Z,101185.08
2023-01-23T15:50:03.412Z,101189.67
2023-01-23T15:53:11.592Z,101188.98
2023-01-23T15:56:27.462Z,101187.27
2023-01-23T15:59:33.561Z,101187.79
2023-01-23T16:02:39.398Z,101190.02
2023-01-23T16:05:46.381Z,101191.88
2023-01-23T16:08:55.107Z,101191.17
2023-01-23T16:12:03.112Z,101194.20
2023-01-23T16:15:25.529Z,101199.98
2023-01-23T16:18:27.181Z,101202.34
2023-01-23T16:21:29.880Z,101207.30
2023-01-23T16:24:36.518Z,101206.59
2023-01-23T16:27:38.324Z,101207.23
2023-01-23T16:30:39.804Z,101208.59
2023-01-23T16:33:41.555Z,101210.77
2023-01-23T16:36:43.327Z,101208.70
2023-01-23T16:39:46.540Z,101215.94
2023-01-23T16:42:49.369Z,101221.86
2023-01-23T16:45:51.792Z,101213.15
2023-01-23T16:48:54.578Z,101217.07
2023-01-23T16:51:59.771Z,101219.10
2023-01-23T16:55:01.695Z,101220.16
2023-01-23T16:58:06.325Z,101222.20
2023-01-23T17:01:18.141Z,101228.00
2023-01-23T17:04:21.000Z,101221.30
2023-01-23T17:07:23.127Z,101219.83
2023-01-23T17:10:29.866Z,101221.56
2023-01-23T17:13:36.427Z,101224.95
2023-01-23T17:16:38.194Z,101229.95
2023-01-23T17:19:41.321Z,101229.71
2023-01-23T17:22:43.792Z,101232.58
2023-01-23T17:25:59.326Z,101229.43
2023-01-23T17:29:02.261Z,101227.88
2023-01-23T17:32:04.168Z,101229.80
2023-01-23T17:35:08.488Z,101229.20
2023-01-23T17:38:25.265Z,101232.18
2023-01-23T17:41:27.062Z,101232.18
2023-01-23T17:44:28.648Z,101231.89
2023-01-23T17:47:32.119Z,101234.67
2023-01-23T17:50:33.728Z,101235.54
2023-01-23T17:53:35.375Z,101239.92
2023-01-23T17:56:37.017Z,101239.34
2023-01-23T17:59:38.632Z,101237.23
2023-01-23T18:02:40.806Z,101237.11
2023-01-23T18:05:42.635Z,101236.42
2023-01-23T18:08:44.319Z,101239.42
2023-01-23T18:11:49.548Z,101236.54
2023-01-23T18:14:58.177Z,101236.83
2023-01-23T18:18:19.109Z,101237.78
2023-01-23T18:21:21.347Z,101238.53
2023-01-23T18:24:28.846Z,101243.98
2023-01-23T18:27:32.638Z,101245.72
2023-01-23T18:30:48.040Z,101244.20
2023-01-23T18:33:55.702Z,101242.66
2023-01-23T18:37:09.295Z,101244.20
2023-01-23T18:40:35.672Z,101247.77
2023-01-23T18:43:39.272Z,101249.30
2023-01-23T18:46:41.042Z,101249.52
2023-01-23T18:49:43.262Z,101245.67
2023-01-23T18:53:22.996Z,101245.75
2023-01-23T18:56:35.020Z,101245.27
2023-01-23T19:00:09.800Z,101247.51
2023-01-23T19:03:16.511Z,101252.17
2023-01-23T19:06:19.519Z,101256.47
2023-01-23T19:09:21.976Z,101254.33
2023-01-23T19:12:54.593Z,101252.15
2023-01-23T19:16:15.329Z,101253.95
2023-01-23T19:19:32.948Z,101252.30
2023-01-23T19:22:49.202Z,101253.19
2023-01-23T19:25:50.944Z,101256.78
2023-01-23T19:28:52.682Z,101258.49
2023-01-23T19:32:09.692Z,101254.05
2023-01-23T19:35:16.338Z,101254.78
2023-01-23T19:38:18.010Z,101255.30
2023-01-23T19:41:24.470Z,101253.77
2023-01-23T19:44:26.595Z,101254.48
2023-01-23T19:47:28.740Z,101252.63
2023-01-23T19:50:30.280Z,101255.75
2023-01-23T19:53:31.970Z,101256.31
2023-01-23T19:56:33.516Z,101257.70
2023-01-23T19:59:35.298Z,101260.41
2023-01-23T20:02:36.852Z,101264.52
2023-01-23T20:05:38.700Z,101261.81
2023-01-23T20:08:40.262Z,101258.91
2023-01-23T20:11:43.152Z,101260.23
2023-01-23T20:14:44.937Z,101258.11
2023-01-23T20:17:46.459Z,101260.29
2023-01-23T20:20:48.245Z,101259.98
2023-01-23T20:23:50.319Z,101262.55
2023-01-23T20:26:51.904Z,101259.77
2023-01-23T20:29:53.490Z,101261.48
2023-01-23T20:32:55.114Z,101259.17
2023-01-23T20:35:56.934Z,101261.30
2023-01-23T20:38:58.403Z,101265.88
2023-01-23T20:42:00.141Z,101264.64
2023-01-23T20:45:01.639Z,101262.12
2023-01-23T20:48:06.587Z,101266.89
2023-01-23T20:51:09.727Z,101268.57
2023-01-23T20:54:11.607Z,101266.16
2023-01-23T20:57:13.680Z,101269.90
2023-01-23T21:00:15.672Z,101274.37
2023-01-23T21:03:17.296Z,101275.56
2023-01-23T21:06:19.874Z,101278.84
2023-01-23T21:09:21.523Z,101277.81
2023-01-23T21:12:23.084Z,101278.11
2023-01-23T21:15:24.824Z,101275.48
2023-01-23T21:18:26.425Z,101279.71
2023-01-23T21:21:28.132Z,101280.69
2023-01-23T21:24:29.612Z,101283.60
2023-01-23T21:27:31.207Z,101281.16
2023-01-23T21:30:32.863Z,101281.64
2023-01-23T21:33:34.641Z,101280.66
2023-01-23T21:36:36.445Z,101286.98
2023-01-23T21:39:39.506Z,101287.98
2023-01-23T21:42:41.106Z,101288.11
2023-01-23T21:45:42.658Z,101285.13
2023-01-23T21:48:44.268Z,101281.81
2023-01-23T21:51:45.944Z,101283.94
2023-01-23T21:54:47.454Z,101283.16
2023-01-23T21:57:49.894Z,101286.14
2023-01-23T22:00:58.780Z,101279.88
2023-01-23T22:04:04.535Z,101276.18
2023-01-23T22:07:06.095Z,101275.20
2023-01-23T22:10:07.993Z,101276.75
2023-01-23T22:13:09.587Z,101276.27
2023-01-23T22:16:11.246Z,101270.30
2023-01-23T22:19:16.759Z,101270.66
2023-01-23T22:22:18.606Z,101268.97
2023-01-23T22:25:20.455Z,101269.13
2023-01-23T22:28:22.877Z,101264.15
2023-01-23T22:31:24.511Z,101263.64
2023-01-23T22:34:26.065Z,101263.81
2023-01-23T22:37:29.445Z,101266.02
2023-01-23T22:40:31.159Z,101270.81
2023-01-23T22:43:33.355Z,101273.19
2023-01-23T22:46:35.049Z,101277.80
2023-01-23T22:49:36.474Z,101273.86
2023-01-23T22:52:38.050Z,101274.70
2023-01-23T22:55:39.632Z,101276.25
2023-01-23T22:58:45.389Z,101282.41
2023-01-23T23:01:47.038Z,101284.29
2023-01-23T23:04:48.680Z,101279.31
2023-01-23T23:07:50.237Z,101281.35
2023-01-23T23:10:58.811Z,101278.61
2023-01-23T23:14:00.374Z,101278.77
2023-01-23T23:17:01.892Z,101282.14
2023-01-23T23:20:03.781Z,101281.27
2023-01-23T23:23:05.474Z,101284.70
2023-01-23T23:26:07.873Z,101277.20
2023-01-23T23:29:10.881Z,101278.91
2023-01-23T23:32:12.514Z,101273.63
2023-01-23T23:35:14.151Z,101280.61
2023-01-23T23:38:16.002Z,101282.14
2023-01-23T23:41:17.787Z,101281.64
2023-01-23T23:44:19.297Z,101281.13
2023-01-23T23:47:20.888Z,101278.09
2023-01-23T23:50:22.815Z,101276.23
2023-01-23T23:53:24.409Z,101276.25
2023-01-23T23:56:27.979Z,101277.96
2023-01-23T23:59:29.841Z,101274.04
